Etusivu
METAR-TAF:

METAR-TAF

Lentoasemat :

Baker City, Oregon, Yhdysvallat

Leveyspiiri: 44-50-14N, Pituuspiiri: 117-48-33W, korkeus merenpinnasta: 1028 m

Tämänhetkinen sää

Tämä raportti tehtiin 32 minuuttia sitten, kello 22.53 UTC
Tuuli 14 kn idästä/kaakosta
Lämpötila 11°C
Kosteus 40%
Ilmanpaine 1028 hPa
Näkyvyys: 16.1 km
selkeää

METAR: KBKE 112253Z AUTO 12014KT 10SM CLR 11/M02 A3035 RMK AO2 SLP295 T01111017

Aika: 15:25 (23:25 UTC)

Sääennuste

Tämä raportti tehtiin 6 tuntia ja 4 minuuttia sitten, kello 17.21 UTC
Ennuste voimassa 11. päivästä klo 18 UTC - 12. päivään klo 18 UTC
Tuuli 9 kn idästä
Näkyvyys: 10 km
Hajanaisia pilviä 20000 ft:n korkeudessa
From 12. päivästä klo 0100 UTC
Tuuli 6 kn idästä/kaakosta
Näkyvyys: 10 km
Hajonneita pilviä 20000 ft:n korkeudessa

TAF: KBKE 111721Z 1118/1218 10009KT P6SM SCT200 FM120100 12006KT P6SM BKN200

Säähavainnot ja -ennusteet yli 4000 lentoasemalta (METAR- ja TAF-raportit).

Käytössä olevat sääasemat on merkitty karttaan keltaisilla ja punaisilla pisteillä.

Aseta hiiri pisteen päälle nähdäksesi sääaseman nimen.

Klikkaa sitten nähdäksesi säähavainnot ja -ennusteet.

Kartan vaihtaminen: klikkaa mustalla rastilla varustettuja vihreitä pisteitä, niin voit zoomata sisään; viivalla varustettua vihreää pistettä, niin voit zoomata ulos tai vihreitä nuolia, niin pääset viereisille kartoille.


METAR-TAF: